Kiris — EA9427 — position and weather

sailwx.info

Track history (hours):
 
Tides and Currents Weather Stations Pressure Air Temp Water Temp Dewpoint Dewpoint Depression Visibility Wind Speed Wind Dir Waves Ship Positions

Kiris

Last reported at 2018-Jan-21 17:39 UTC. Time now 2018-Jan-24 10:00 UTC.
Position N 37°45' W 000°45'.

Length 15 m.

Type: Sailing vessel. MMSI: 224186580.

Date/timePositionNaut miles runAvg speedWind from/ knotsBaromVisibWave heightAir tempDewpointWater temp
2018-Jan-21 17:39N 37°45' W 000°45'0 0.0
2018-Jan-21 17:21N 37°45' W 000°45'0 0.0
2018-Jan-21 16:57N 37°45' W 000°45'0 0.0
2018-Jan-21 16:30N 37°45' W 000°45'3 4.0
2018-Jan-21 15:38N 37°43' W 000°48'1 2.0
2018-Jan-21 15:15N 37°42' W 000°47'1 0.5
2018-Jan-21 13:51N 37°42' W 000°48'1 1.4
2018-Jan-21 13:18N 37°43' W 000°48'1 4.2
2018-Jan-21 13:00N 37°44' W 000°47'2 2.3
2018-Jan-21 12:21N 37°45' W 000°46'1 2.4
2018-Jan-21 11:59N 37°45' W 000°45'0 0.1
2018-Jan-21 11:30N 37°45' W 000°45'0 0.0
2018-Jan-21 10:54N 37°45' W 000°45'0 0.0
2018-Jan-21 10:30N 37°45' W 000°45'0 0.0
2018-Jan-21 10:00N 37°45' W 000°45'0 0.0
2018-Jan-20 16:52N 37°45' W 000°45'0 0.0
2018-Jan-20 16:28N 37°45' W 000°45'2 3.2
2018-Jan-20 15:55N 37°45' W 000°47'1 1.5
2018-Jan-20 15:30N 37°44' W 000°47'0 0.3
2018-Jan-20 14:59N 37°44' W 000°47'2 4.1
2018-Jan-20 14:30N 37°42' W 000°47'0 0.3
2018-Jan-20 13:35N 37°42' W 000°48'0 4.7
2018-Jan-20 13:30N 37°42' W 000°48'2 4.0
2018-Jan-20 13:00N 37°44' W 000°46'1 2.4
2018-Jan-20 12:29N 37°45' W 000°45'0 0.8
2018-Jan-20 11:50N 37°45' W 000°45'0 0.0
2018-Jan-20 11:26N 37°45' W 000°45'0 0.0
2018-Jan-20 10:56N 37°45' W 000°45'0 0.0
2018-Jan-20 10:20N 37°45' W 000°45'  
2018-Jan-12 14:57N 37°45' W 000°45'0 0.0
2018-Jan-12 14:21N 37°45' W 000°45'0 0.0
2018-Jan-12 13:51N 37°45' W 000°45'0 0.0
2018-Jan-12 13:15N 37°45' W 000°45'0 0.0
2018-Jan-12 12:51N 37°45' W 000°45'0 0.0
2018-Jan-12 12:15N 37°45' W 000°45'0 0.0
2018-Jan-12 11:57N 37°45' W 000°45'0 0.0
2018-Jan-12 11:27N 37°45' W 000°45'0 0.0
2018-Jan-12 10:57N 37°45' W 000°45'0 0.0
2018-Jan-12 10:27N 37°45' W 000°45'  
Track history (hours):
 
Tides and Currents Weather Stations Pressure Air Temp Water Temp Dewpoint Dewpoint Depression Visibility Wind Speed Wind Dir Waves Ship Positions

Kiris

Last reported at 2018-Jan-21 17:39 UTC. Time now 2018-Jan-24 10:00 UTC.
Position N 37°45' W 000°45'.

Length 15 m.

Type: Sailing vessel. MMSI: 224186580.

Date/timePositionNaut miles runAvg speedWind from/ knotsBaromVisibWave heightAir tempDewpointWater temp
2018-Jan-21 17:39N 37°45' W 000°45'0 0.0
2018-Jan-21 17:21N 37°45' W 000°45'0 0.0
2018-Jan-21 16:57N 37°45' W 000°45'0 0.0
2018-Jan-21 16:30N 37°45' W 000°45'3 4.0
2018-Jan-21 15:38N 37°43' W 000°48'1 2.0
2018-Jan-21 15:15N 37°42' W 000°47'1 0.5
2018-Jan-21 13:51N 37°42' W 000°48'1 1.4
2018-Jan-21 13:18N 37°43' W 000°48'1 4.2
2018-Jan-21 13:00N 37°44' W 000°47'2 2.3
2018-Jan-21 12:21N 37°45' W 000°46'1 2.4
2018-Jan-21 11:59N 37°45' W 000°45'0 0.1
2018-Jan-21 11:30N 37°45' W 000°45'0 0.0
2018-Jan-21 10:54N 37°45' W 000°45'0 0.0
2018-Jan-21 10:30N 37°45' W 000°45'0 0.0
2018-Jan-21 10:00N 37°45' W 000°45'0 0.0
2018-Jan-20 16:52N 37°45' W 000°45'0 0.0
2018-Jan-20 16:28N 37°45' W 000°45'2 3.2
2018-Jan-20 15:55N 37°45' W 000°47'1 1.5
2018-Jan-20 15:30N 37°44' W 000°47'0 0.3
2018-Jan-20 14:59N 37°44' W 000°47'2 4.1
2018-Jan-20 14:30N 37°42' W 000°47'0 0.3
2018-Jan-20 13:35N 37°42' W 000°48'0 4.7
2018-Jan-20 13:30N 37°42' W 000°48'2 4.0
2018-Jan-20 13:00N 37°44' W 000°46'1 2.4
2018-Jan-20 12:29N 37°45' W 000°45'0 0.8
2018-Jan-20 11:50N 37°45' W 000°45'0 0.0
2018-Jan-20 11:26N 37°45' W 000°45'0 0.0
2018-Jan-20 10:56N 37°45' W 000°45'0 0.0
2018-Jan-20 10:20N 37°45' W 000°45'  
2018-Jan-12 14:57N 37°45' W 000°45'0 0.0
2018-Jan-12 14:21N 37°45' W 000°45'0 0.0
2018-Jan-12 13:51N 37°45' W 000°45'0 0.0
2018-Jan-12 13:15N 37°45' W 000°45'0 0.0
2018-Jan-12 12:51N 37°45' W 000°45'0 0.0
2018-Jan-12 12:15N 37°45' W 000°45'0 0.0
2018-Jan-12 11:57N 37°45' W 000°45'0 0.0
2018-Jan-12 11:27N 37°45' W 000°45'0 0.0
2018-Jan-12 10:57N 37°45' W 000°45'0 0.0
2018-Jan-12 10:27N 37°45' W 000°45'  

Dump ship's entire track history